createdAt,value
2019-06-27T00:01:07.652Z,101281.77
2019-06-27T00:03:34.827Z,101285.68
2019-06-27T00:06:02.154Z,101289.17
2019-06-27T00:08:30.848Z,101290.48
2019-06-27T00:10:59.258Z,101283.47
2019-06-27T00:13:26.829Z,101292.16
2019-06-27T00:15:54.027Z,101294.00
2019-06-27T00:18:21.214Z,101286.91
2019-06-27T00:20:48.305Z,101297.14
2019-06-27T00:23:15.572Z,101291.42
2019-06-27T00:25:42.824Z,101292.80
2019-06-27T00:28:10.084Z,101289.59
2019-06-27T00:30:37.161Z,101282.86
2019-06-27T00:33:04.281Z,101287.02
2019-06-27T00:35:31.341Z,101286.02
2019-06-27T00:37:58.512Z,101291.16
2019-06-27T00:40:25.770Z,101293.09
2019-06-27T00:42:52.965Z,101297.14
2019-06-27T00:45:20.285Z,101305.69
2019-06-27T00:47:47.422Z,101304.92
2019-06-27T00:50:15.166Z,101303.77
2019-06-27T00:52:42.380Z,101305.61
2019-06-27T00:55:09.572Z,101313.47
2019-06-27T00:57:36.778Z,101315.00
2019-06-27T01:00:04.998Z,101308.70
2019-06-27T01:02:32.218Z,101304.61
2019-06-27T01:04:59.411Z,101309.41
2019-06-27T01:07:26.910Z,101311.34
2019-06-27T01:09:54.107Z,101305.42
2019-06-27T01:12:21.294Z,101314.05
2019-06-27T01:14:48.481Z,101311.48
2019-06-27T01:17:16.070Z,101316.77
2019-06-27T01:19:43.239Z,101318.27
2019-06-27T01:22:10.411Z,101321.05
2019-06-27T01:24:37.660Z,101323.33
2019-06-27T01:27:04.808Z,101322.83
2019-06-27T01:29:32.070Z,101327.05
2019-06-27T01:31:59.421Z,101325.00
2019-06-27T01:34:26.572Z,101328.52
2019-06-27T01:36:53.815Z,101329.59
2019-06-27T01:39:21.004Z,101338.42
2019-06-27T01:41:48.347Z,101331.58
2019-06-27T01:44:41.786Z,101333.46
2019-06-27T01:47:09.453Z,101338.28
2019-06-27T01:49:36.580Z,101339.52
2019-06-27T01:52:04.037Z,101329.88
2019-06-27T01:54:31.513Z,101335.12
2019-06-27T01:56:58.706Z,101338.37
2019-06-27T01:59:25.937Z,101338.30
2019-06-27T02:01:53.182Z,101333.59
2019-06-27T02:04:20.655Z,101338.91
2019-06-27T02:06:47.989Z,101339.37
2019-06-27T02:09:15.152Z,101339.92
2019-06-27T02:11:42.249Z,101339.64
2019-06-27T02:14:09.475Z,101337.91
2019-06-27T02:16:37.055Z,101351.46
2019-06-27T02:19:04.323Z,101345.46
2019-06-27T02:21:31.577Z,101346.02
2019-06-27T02:23:58.856Z,101352.25
2019-06-27T02:26:26.053Z,101349.27
2019-06-27T02:28:53.704Z,101356.70
2019-06-27T02:31:20.796Z,101353.48
2019-06-27T02:33:48.003Z,101359.41
2019-06-27T02:36:15.437Z,101355.93
2019-06-27T02:38:42.635Z,101363.03
2019-06-27T02:41:09.830Z,101361.86
2019-06-27T02:43:37.135Z,101360.42
2019-06-27T02:46:04.461Z,101365.28
2019-06-27T02:48:31.817Z,101363.52
2019-06-27T02:50:59.214Z,101359.72
2019-06-27T02:53:26.465Z,101368.44
2019-06-27T02:55:53.729Z,101368.54
2019-06-27T02:58:31.065Z,101369.94
2019-06-27T03:00:50.733Z,101373.16
2019-06-27T03:03:18.069Z,101373.55
2019-06-27T03:05:45.206Z,101368.08
2019-06-27T03:08:12.941Z,101377.34
2019-06-27T03:10:40.163Z,101376.84
2019-06-27T03:13:07.233Z,101369.58
2019-06-27T03:15:34.439Z,101373.78
2019-06-27T03:18:01.585Z,101372.98
2019-06-27T03:20:29.119Z,101371.70
2019-06-27T03:22:56.577Z,101370.73
2019-06-27T03:25:23.793Z,101372.83
2019-06-27T03:27:51.522Z,101374.83
2019-06-27T03:30:18.997Z,101379.06
2019-06-27T03:32:46.410Z,101376.05
2019-06-27T03:35:13.596Z,101377.39
2019-06-27T03:37:41.114Z,101380.73
2019-06-27T03:40:09.495Z,101375.52
2019-06-27T03:42:36.713Z,101375.85
2019-06-27T03:45:04.373Z,101374.83
2019-06-27T03:47:31.882Z,101378.48
2019-06-27T03:49:59.127Z,101385.20
2019-06-27T03:52:26.485Z,101378.30
2019-06-27T03:54:53.853Z,101380.30
2019-06-27T03:57:22.864Z,101376.92
2019-06-27T03:59:49.996Z,101381.43
2019-06-27T04:02:17.292Z,101378.19
2019-06-27T04:04:44.474Z,101378.17
2019-06-27T04:07:11.663Z,101384.83
2019-06-27T04:09:39.262Z,101388.00
2019-06-27T04:12:06.596Z,101395.51
2019-06-27T04:14:33.879Z,101394.47
2019-06-27T04:17:01.045Z,101391.38
2019-06-27T04:19:28.347Z,101393.77
2019-06-27T04:21:55.519Z,101398.66
2019-06-27T04:24:22.777Z,101406.00
2019-06-27T04:26:50.084Z,101404.48
2019-06-27T04:29:33.001Z,101407.09
2019-06-27T04:31:46.747Z,101408.67
2019-06-27T04:34:19.254Z,101407.14
2019-06-27T04:36:43.119Z,101406.97
2019-06-27T04:39:10.452Z,101405.21
2019-06-27T04:41:38.115Z,101412.73
2019-06-27T04:44:05.311Z,101411.39
2019-06-27T04:46:32.480Z,101410.13
2019-06-27T04:49:00.213Z,101409.69
2019-06-27T04:51:27.497Z,101411.33
2019-06-27T04:53:54.741Z,101427.95
2019-06-27T04:56:23.281Z,101418.51
2019-06-27T04:58:50.809Z,101426.28
2019-06-27T05:01:17.998Z,101424.95
2019-06-27T05:03:45.180Z,101434.98
2019-06-27T05:06:12.510Z,101434.14
2019-06-27T05:08:39.714Z,101430.57
2019-06-27T05:11:06.939Z,101442.48
2019-06-27T05:13:34.133Z,101430.75
2019-06-27T05:16:01.785Z,101428.12
2019-06-27T05:18:29.059Z,101437.41
2019-06-27T05:20:56.420Z,101442.97
2019-06-27T05:23:23.711Z,101433.41
2019-06-27T05:25:51.425Z,101434.36
2019-06-27T05:28:18.680Z,101433.91
2019-06-27T05:30:45.911Z,101432.76
2019-06-27T05:33:13.120Z,101439.65
2019-06-27T05:35:40.202Z,101444.31
2019-06-27T05:38:07.404Z,101446.64
2019-06-27T05:40:34.835Z,101443.24
2019-06-27T05:43:02.135Z,101452.79
2019-06-27T05:45:29.662Z,101453.72
2019-06-27T05:47:56.776Z,101453.48
2019-06-27T05:50:24.072Z,101452.77
2019-06-27T05:52:51.286Z,101460.64
2019-06-27T05:55:18.857Z,101460.27
2019-06-27T05:57:46.104Z,101466.81
2019-06-27T06:00:27.563Z,101462.57
2019-06-27T06:02:44.076Z,101465.84
2019-06-27T06:05:11.170Z,101460.72
2019-06-27T06:07:39.009Z,101454.28
2019-06-27T06:10:06.485Z,101452.69
2019-06-27T06:12:33.816Z,101452.48
2019-06-27T06:15:00.993Z,101458.64
2019-06-27T06:17:28.941Z,101463.51
2019-06-27T06:19:56.213Z,101454.09
2019-06-27T06:22:23.458Z,101457.91
2019-06-27T06:24:51.234Z,101465.20
2019-06-27T06:27:18.628Z,101471.13
2019-06-27T06:29:45.986Z,101466.01
2019-06-27T06:32:14.308Z,101470.66
2019-06-27T06:34:41.497Z,101478.30
2019-06-27T06:37:09.249Z,101475.40
2019-06-27T06:39:36.497Z,101482.20
2019-06-27T06:42:03.608Z,101501.10
2019-06-27T06:44:30.895Z,101501.23
2019-06-27T06:46:58.035Z,101504.09
2019-06-27T06:49:25.231Z,101505.08
2019-06-27T06:51:52.333Z,101495.75
2019-06-27T06:54:19.527Z,101497.95
2019-06-27T06:56:46.728Z,101500.17
2019-06-27T06:59:14.215Z,101497.84
2019-06-27T07:01:41.351Z,101488.53
2019-06-27T07:04:08.877Z,101506.29
2019-06-27T07:06:36.179Z,101492.94
2019-06-27T07:09:04.501Z,101501.33
2019-06-27T07:11:33.874Z,101500.58
2019-06-27T07:14:01.062Z,101501.98
2019-06-27T07:16:28.401Z,101504.26
2019-06-27T07:18:55.937Z,101505.01
2019-06-27T07:21:23.122Z,101510.11
2019-06-27T07:23:50.237Z,101500.72
2019-06-27T07:26:17.453Z,101517.84
2019-06-27T07:28:44.554Z,101507.92
2019-06-27T07:31:17.882Z,101510.97
2019-06-27T07:33:41.068Z,101507.68
2019-06-27T07:36:08.819Z,101503.97
2019-06-27T07:38:36.046Z,101499.08
2019-06-27T07:41:03.236Z,101497.70
2019-06-27T07:43:30.421Z,101500.59
2019-06-27T07:45:57.724Z,101506.30
2019-06-27T07:48:24.998Z,101497.48
2019-06-27T07:50:52.087Z,101506.73
2019-06-27T07:53:19.274Z,101515.33
2019-06-27T07:55:46.526Z,101512.94
2019-06-27T07:58:13.677Z,101512.39
2019-06-27T08:00:40.976Z,101513.80
2019-06-27T08:03:08.032Z,101506.51
2019-06-27T08:05:35.238Z,101510.28
2019-06-27T08:08:02.427Z,101505.02
2019-06-27T08:10:30.627Z,101495.91
2019-06-27T08:12:57.740Z,101491.95
2019-06-27T08:15:25.296Z,101496.17
2019-06-27T08:17:52.372Z,101489.29
2019-06-27T08:20:19.536Z,101490.23
2019-06-27T08:22:46.747Z,101500.63
2019-06-27T08:25:14.230Z,101497.11
2019-06-27T08:27:41.388Z,101498.20
2019-06-27T08:30:09.308Z,101501.39
2019-06-27T08:32:36.551Z,101491.23
2019-06-27T08:35:04.576Z,101497.70
2019-06-27T08:37:31.816Z,101495.16
2019-06-27T08:39:58.994Z,101491.98
2019-06-27T08:42:26.214Z,101493.58
2019-06-27T08:44:53.644Z,101496.17
2019-06-27T08:47:20.813Z,101496.85
2019-06-27T08:49:47.965Z,101497.91
2019-06-27T08:52:15.055Z,101502.61
2019-06-27T08:54:42.341Z,101505.78
2019-06-27T08:57:09.400Z,101496.70
2019-06-27T08:59:37.019Z,101489.90
2019-06-27T09:02:09.051Z,101497.80
2019-06-27T09:04:33.658Z,101493.08
2019-06-27T09:07:00.842Z,101492.95
2019-06-27T09:09:28.030Z,101495.41
2019-06-27T09:11:55.300Z,101491.77
2019-06-27T09:14:22.603Z,101498.00
2019-06-27T09:16:49.863Z,101489.89
2019-06-27T09:19:17.141Z,101491.39
2019-06-27T09:21:44.536Z,101489.36
2019-06-27T09:24:11.827Z,101491.41
2019-06-27T09:26:38.995Z,101497.05
2019-06-27T09:29:06.263Z,101496.17
2019-06-27T09:31:33.421Z,101494.48
2019-06-27T09:34:00.488Z,101495.44
2019-06-27T09:36:28.079Z,101501.83
2019-06-27T09:38:55.294Z,101488.14
2019-06-27T09:41:22.663Z,101494.39
2019-06-27T09:43:50.070Z,101497.23
2019-06-27T09:46:17.260Z,101492.58
2019-06-27T09:48:44.432Z,101486.88
2019-06-27T09:51:11.634Z,101487.81
2019-06-27T09:53:39.033Z,101489.78
2019-06-27T09:56:06.223Z,101483.59
2019-06-27T09:58:33.485Z,101481.89
2019-06-27T10:01:00.671Z,101483.03
2019-06-27T10:03:27.859Z,101489.01
2019-06-27T10:05:55.037Z,101494.73
2019-06-27T10:08:22.780Z,101486.51
2019-06-27T10:10:50.063Z,101485.09
2019-06-27T10:13:17.428Z,101490.80
2019-06-27T10:15:44.498Z,101491.41
2019-06-27T10:18:11.968Z,101486.38
2019-06-27T10:20:39.169Z,101494.20
2019-06-27T10:23:06.416Z,101496.02
2019-06-27T10:25:33.645Z,101494.93
2019-06-27T10:28:00.764Z,101493.52
2019-06-27T10:30:28.598Z,101501.28
2019-06-27T10:32:59.774Z,101479.28
2019-06-27T10:35:25.195Z,101489.84
2019-06-27T10:37:52.366Z,101486.38
2019-06-27T10:40:20.728Z,101481.30
2019-06-27T10:42:47.979Z,101484.58
2019-06-27T10:45:15.286Z,101479.40
2019-06-27T10:47:42.403Z,101487.06
2019-06-27T10:50:10.799Z,101484.48
2019-06-27T10:52:37.976Z,101475.25
2019-06-27T10:55:05.964Z,101474.60
2019-06-27T10:57:33.091Z,101471.17
2019-06-27T11:00:00.188Z,101464.80
2019-06-27T11:02:27.282Z,101474.30
2019-06-27T11:04:54.603Z,101478.52
2019-06-27T11:07:21.838Z,101466.84
2019-06-27T11:09:50.302Z,101465.19
2019-06-27T11:12:17.734Z,101466.30
2019-06-27T11:14:58.255Z,101471.08
2019-06-27T11:17:14.002Z,101458.81
2019-06-27T11:19:51.906Z,101457.30
2019-06-27T11:22:10.657Z,101445.89
2019-06-27T11:24:38.211Z,101454.23
2019-06-27T11:27:05.434Z,101462.33
2019-06-27T11:29:32.635Z,101446.60
2019-06-27T11:31:59.837Z,101448.59
2019-06-27T11:34:27.953Z,101434.44
2019-06-27T11:36:55.215Z,101443.17
2019-06-27T11:39:23.465Z,101445.80
2019-06-27T11:41:50.870Z,101432.78
2019-06-27T11:44:18.009Z,101433.28
2019-06-27T11:46:45.179Z,101435.99
2019-06-27T11:49:12.391Z,101419.30
2019-06-27T11:51:39.753Z,101431.17
2019-06-27T11:54:06.979Z,101429.61
2019-06-27T11:56:34.725Z,101428.91
2019-06-27T11:59:01.926Z,101419.14
2019-06-27T12:01:29.229Z,101419.06
2019-06-27T12:03:56.448Z,101423.53
2019-06-27T12:06:23.979Z,101408.15
2019-06-27T12:08:51.223Z,101414.19
2019-06-27T12:11:18.539Z,101410.11
2019-06-27T12:13:45.726Z,101404.27
2019-06-27T12:16:12.876Z,101404.08
2019-06-27T12:18:40.121Z,101404.20
2019-06-27T12:21:07.399Z,101416.03
2019-06-27T12:23:34.564Z,101413.26
2019-06-27T12:26:01.695Z,101401.88
2019-06-27T12:28:28.969Z,101402.06
2019-06-27T12:30:56.150Z,101398.42
2019-06-27T12:33:23.810Z,101402.17
2019-06-27T12:35:50.881Z,101396.65
2019-06-27T12:38:18.055Z,101395.20
2019-06-27T12:40:45.273Z,101393.54
2019-06-27T12:43:14.533Z,101383.48
2019-06-27T12:45:42.038Z,101384.93
2019-06-27T12:48:09.146Z,101382.69
2019-06-27T12:50:36.188Z,101391.65
2019-06-27T12:53:03.379Z,101381.84
2019-06-27T12:55:30.568Z,101376.69
2019-06-27T12:57:57.760Z,101375.34
2019-06-27T13:00:25.090Z,101378.30
2019-06-27T13:02:52.508Z,101367.66
2019-06-27T13:05:20.770Z,101385.98
2019-06-27T13:07:47.996Z,101361.02
2019-06-27T13:10:15.865Z,101353.89
2019-06-27T13:12:42.949Z,101356.49
2019-06-27T13:15:11.510Z,101353.48
2019-06-27T13:17:38.618Z,101360.56
2019-06-27T13:20:06.894Z,101352.84
2019-06-27T13:22:34.261Z,101357.39
2019-06-27T13:25:01.679Z,101359.67
2019-06-27T13:27:29.210Z,101352.80
2019-06-27T13:29:56.322Z,101347.45
2019-06-27T13:32:25.471Z,101347.06
2019-06-27T13:34:52.676Z,101355.22
2019-06-27T13:37:20.170Z,101347.53
2019-06-27T13:39:47.306Z,101352.29
2019-06-27T13:42:14.547Z,101340.48
2019-06-27T13:44:41.728Z,101339.00
2019-06-27T13:47:08.988Z,101334.53
2019-06-27T13:49:36.148Z,101326.92
2019-06-27T13:52:03.360Z,101324.11
2019-06-27T13:54:30.808Z,101324.20
2019-06-27T13:56:58.376Z,101319.28
2019-06-27T13:59:25.527Z,101321.02
2019-06-27T14:01:52.895Z,101313.16
2019-06-27T14:04:24.009Z,101310.44
2019-06-27T14:06:49.207Z,101317.78
2019-06-27T14:09:23.145Z,101299.81
2019-06-27T14:11:45.491Z,101305.25
2019-06-27T14:14:12.998Z,101294.45
2019-06-27T14:16:40.541Z,101296.47
2019-06-27T14:19:07.711Z,101301.55
2019-06-27T14:21:34.893Z,101294.30
2019-06-27T14:24:02.068Z,101288.86
2019-06-27T14:26:29.476Z,101296.11
2019-06-27T14:28:57.126Z,101283.48
2019-06-27T14:31:24.435Z,101287.34
2019-06-27T14:33:51.618Z,101285.55
2019-06-27T14:36:18.717Z,101287.57
2019-06-27T14:38:45.934Z,101282.68
2019-06-27T14:41:13.098Z,101285.36
2019-06-27T14:43:40.699Z,101282.53
2019-06-27T14:46:07.928Z,101268.38
2019-06-27T14:48:35.499Z,101271.47
2019-06-27T14:51:02.978Z,101272.23
2019-06-27T14:53:30.264Z,101265.44
2019-06-27T14:55:57.419Z,101256.30
2019-06-27T14:58:24.626Z,101264.05
2019-06-27T15:00:51.837Z,101263.81
2019-06-27T15:03:18.999Z,101253.50
2019-06-27T15:05:46.091Z,101246.48
2019-06-27T15:08:13.318Z,101244.50
2019-06-27T15:10:40.490Z,101251.30
2019-06-27T15:13:07.927Z,101246.30
2019-06-27T15:15:35.524Z,101249.47
2019-06-27T15:18:02.662Z,101241.38
2019-06-27T15:20:29.818Z,101252.41
2019-06-27T15:22:56.986Z,101240.94
2019-06-27T15:25:27.939Z,101246.75
2019-06-27T15:27:53.405Z,101239.33
2019-06-27T15:30:20.983Z,101241.02
2019-06-27T15:32:48.869Z,101236.34
2019-06-27T15:35:16.128Z,101241.93
2019-06-27T15:37:43.554Z,101242.74
2019-06-27T15:40:12.350Z,101243.73
2019-06-27T15:42:39.508Z,101246.60
2019-06-27T15:45:07.589Z,101244.47
2019-06-27T15:47:34.801Z,101256.42
2019-06-27T15:50:02.016Z,101239.58
2019-06-27T15:52:29.452Z,101242.77
2019-06-27T15:54:56.513Z,101238.84
2019-06-27T15:57:23.815Z,101246.48
2019-06-27T15:59:50.977Z,101239.97
2019-06-27T16:02:18.144Z,101239.30
2019-06-27T16:04:45.337Z,101243.77
2019-06-27T16:07:12.738Z,101235.83
2019-06-27T16:09:40.579Z,101235.53
2019-06-27T16:12:08.157Z,101234.17
2019-06-27T16:14:35.368Z,101239.97
2019-06-27T16:17:03.038Z,101234.83
2019-06-27T16:19:30.346Z,101237.39
2019-06-27T16:21:57.576Z,101227.51
2019-06-27T16:24:24.851Z,101224.13
2019-06-27T16:26:52.175Z,101235.09
2019-06-27T16:29:19.566Z,101233.14
2019-06-27T16:31:46.740Z,101229.34
2019-06-27T16:34:13.960Z,101226.86
2019-06-27T16:36:41.276Z,101237.34
2019-06-27T16:39:08.492Z,101227.16
2019-06-27T16:41:35.573Z,101235.70
2019-06-27T16:44:02.840Z,101229.27
2019-06-27T16:46:30.138Z,101228.28
2019-06-27T16:48:57.389Z,101222.60
2019-06-27T16:51:24.936Z,101224.42
2019-06-27T16:53:52.570Z,101226.37
2019-06-27T16:56:19.875Z,101225.12
2019-06-27T16:58:47.076Z,101224.89
2019-06-27T17:01:14.672Z,101223.50
2019-06-27T17:03:41.862Z,101217.77
2019-06-27T17:06:09.218Z,101222.52
2019-06-27T17:08:38.230Z,101226.59
2019-06-27T17:11:05.783Z,101223.78
2019-06-27T17:13:32.994Z,101227.22
2019-06-27T17:16:00.210Z,101232.80
2019-06-27T17:18:27.493Z,101236.80
2019-06-27T17:20:54.982Z,101231.05
2019-06-27T17:23:22.052Z,101229.90
2019-06-27T17:25:49.281Z,101224.45
2019-06-27T17:28:16.538Z,101224.53
2019-06-27T17:30:44.056Z,101229.96
2019-06-27T17:33:11.244Z,101241.90
2019-06-27T17:35:38.365Z,101232.22
2019-06-27T17:38:05.562Z,101229.30
2019-06-27T17:40:32.710Z,101236.26
2019-06-27T17:42:59.929Z,101223.37
2019-06-27T17:45:27.092Z,101231.71
2019-06-27T17:47:54.664Z,101230.05
2019-06-27T17:50:21.892Z,101232.55
2019-06-27T17:52:49.218Z,101230.84
2019-06-27T17:55:16.742Z,101235.20
2019-06-27T17:57:46.924Z,101240.99
2019-06-27T18:00:13.287Z,101244.76
2019-06-27T18:02:40.586Z,101243.31
2019-06-27T18:05:07.886Z,101243.53
2019-06-27T18:07:35.078Z,101243.44
2019-06-27T18:10:02.797Z,101245.17
2019-06-27T18:12:30.388Z,101244.96
2019-06-27T18:14:58.058Z,101244.46
2019-06-27T18:17:33.715Z,101246.91
2019-06-27T18:19:54.362Z,101238.90
2019-06-27T18:22:21.639Z,101247.67
2019-06-27T18:24:48.880Z,101245.50
2019-06-27T18:27:16.044Z,101243.10
2019-06-27T18:29:43.229Z,101244.45
2019-06-27T18:32:10.454Z,101242.42
2019-06-27T18:34:37.773Z,101241.26
2019-06-27T18:37:05.377Z,101246.06
2019-06-27T18:39:32.573Z,101237.10
2019-06-27T18:41:59.699Z,101240.49
2019-06-27T18:44:26.885Z,101243.67
2019-06-27T18:46:54.065Z,101239.85
2019-06-27T18:49:21.290Z,101235.89
2019-06-27T18:51:48.432Z,101239.41
2019-06-27T18:54:15.612Z,101238.61
2019-06-27T18:56:42.873Z,101240.66
2019-06-27T18:59:10.417Z,101242.12
2019-06-27T19:01:37.642Z,101251.73
2019-06-27T19:04:04.851Z,101250.39
2019-06-27T19:06:32.470Z,101251.78
2019-06-27T19:08:59.771Z,101256.02
2019-06-27T19:11:27.831Z,101257.88
2019-06-27T19:13:55.042Z,101255.55
2019-06-27T19:16:22.581Z,101263.33
2019-06-27T19:18:54.262Z,101264.89
2019-06-27T19:21:29.628Z,101275.48
2019-06-27T19:24:08.076Z,101270.66
2019-06-27T19:26:35.264Z,101265.36
2019-06-27T19:29:02.635Z,101270.50
2019-06-27T19:31:29.942Z,101271.09
2019-06-27T19:33:57.195Z,101282.32
2019-06-27T19:36:24.447Z,101281.08
2019-06-27T19:38:52.181Z,101285.61
2019-06-27T19:41:19.394Z,101294.89
2019-06-27T19:43:46.741Z,101290.22
2019-06-27T19:46:14.436Z,101294.06
2019-06-27T19:48:45.495Z,101293.20
2019-06-27T19:51:11.363Z,101300.44
2019-06-27T19:53:38.653Z,101308.02
2019-06-27T19:56:05.897Z,101306.77
2019-06-27T19:58:33.451Z,101320.98
2019-06-27T20:01:00.810Z,101319.21
2019-06-27T20:03:28.569Z,101327.18
2019-06-27T20:05:55.822Z,101325.37
2019-06-27T20:08:23.106Z,101326.64
2019-06-27T20:10:50.410Z,101334.28
2019-06-27T20:13:18.022Z,101331.66
2019-06-27T20:15:45.242Z,101342.77
2019-06-27T20:18:15.638Z,101342.10
2019-06-27T20:20:43.149Z,101345.61
2019-06-27T20:23:17.167Z,101359.00
2019-06-27T20:25:44.799Z,101357.28
2019-06-27T20:28:12.041Z,101359.82
2019-06-27T20:30:39.711Z,101358.48
2019-06-27T20:33:07.484Z,101366.48
2019-06-27T20:35:35.953Z,101367.20
2019-06-27T20:38:03.327Z,101368.61
2019-06-27T20:40:30.677Z,101372.70
2019-06-27T20:42:59.280Z,101373.96
2019-06-27T20:45:26.606Z,101373.64
2019-06-27T20:47:55.726Z,101374.06
2019-06-27T20:50:23.629Z,101381.11
2019-06-27T20:52:52.234Z,101374.72
2019-06-27T20:55:19.839Z,101383.84
2019-06-27T20:57:47.608Z,101383.20
2019-06-27T21:00:16.048Z,101388.53
2019-06-27T21:02:44.051Z,101389.13
2019-06-27T21:05:11.713Z,101385.58
2019-06-27T21:07:39.005Z,101388.16
2019-06-27T21:10:06.789Z,101392.92
2019-06-27T21:12:34.225Z,101391.91
2019-06-27T21:15:01.658Z,101393.29
2019-06-27T21:17:29.313Z,101395.34
2019-06-27T21:19:56.546Z,101386.59
2019-06-27T21:22:23.911Z,101397.73
2019-06-27T21:24:51.150Z,101394.09
2019-06-27T21:27:18.409Z,101399.83
2019-06-27T21:29:45.881Z,101398.70
2019-06-27T21:32:13.161Z,101402.87
2019-06-27T21:34:40.438Z,101406.55
2019-06-27T21:37:08.110Z,101413.40
2019-06-27T21:39:35.457Z,101406.50
2019-06-27T21:42:02.775Z,101405.27
2019-06-27T21:44:30.025Z,101404.44
2019-06-27T21:46:57.303Z,101405.34
2019-06-27T21:49:24.463Z,101408.38
2019-06-27T21:51:52.061Z,101411.91
2019-06-27T21:54:20.580Z,101406.86
2019-06-27T21:56:47.902Z,101409.58
2019-06-27T21:59:15.296Z,101410.40
2019-06-27T22:01:43.068Z,101403.86
2019-06-27T22:04:10.951Z,101405.88
2019-06-27T22:06:38.210Z,101403.55
2019-06-27T22:09:06.323Z,101408.90
2019-06-27T22:11:33.834Z,101411.59
2019-06-27T22:14:01.266Z,101405.55
2019-06-27T22:16:28.505Z,101404.88
2019-06-27T22:18:57.756Z,101410.56
2019-06-27T22:21:25.352Z,101403.86
2019-06-27T22:23:52.715Z,101401.51
2019-06-27T22:26:19.982Z,101398.14
2019-06-27T22:28:48.145Z,101399.09
2019-06-27T22:31:15.383Z,101404.63
2019-06-27T22:33:42.894Z,101396.27
2019-06-27T22:36:10.126Z,101401.44
2019-06-27T22:38:55.587Z,101396.23
2019-06-27T22:41:59.183Z,101401.77
2019-06-27T22:45:03.424Z,101401.78
2019-06-27T22:48:07.271Z,101405.73
2019-06-27T22:51:21.882Z,101396.61
2019-06-27T22:53:56.789Z,101406.61
2019-06-27T22:56:25.023Z,101408.91
2019-06-27T22:58:52.358Z,101405.20
2019-06-27T23:01:19.768Z,101404.71
2019-06-27T23:03:46.968Z,101408.39
2019-06-27T23:06:15.325Z,101405.54
2019-06-27T23:08:42.665Z,101402.69
2019-06-27T23:11:09.885Z,101403.36
2019-06-27T23:13:37.183Z,101406.03
2019-06-27T23:16:04.407Z,101407.03
2019-06-27T23:18:31.655Z,101406.42
2019-06-27T23:20:58.759Z,101409.35
2019-06-27T23:23:25.926Z,101406.80
2019-06-27T23:25:53.113Z,101400.26
2019-06-27T23:28:20.544Z,101397.66
2019-06-27T23:30:48.560Z,101400.97
2019-06-27T23:33:16.001Z,101400.86
2019-06-27T23:35:43.119Z,101406.33
2019-06-27T23:38:10.444Z,101403.65
2019-06-27T23:40:37.687Z,101401.91
2019-06-27T23:43:04.940Z,101397.84
2019-06-27T23:45:32.189Z,101408.41
2019-06-27T23:47:59.788Z,101406.68
2019-06-27T23:50:27.047Z,101404.11
2019-06-27T23:52:54.311Z,101415.63
2019-06-27T23:55:22.578Z,101411.47
2019-06-27T23:57:50.135Z,101413.42
